createdAt,value
2018-08-13T00:00:52.800Z,19.60
2018-08-13T00:03:21.225Z,19.60
2018-08-13T00:05:49.602Z,19.50
2018-08-13T00:08:18.388Z,19.50
2018-08-13T00:10:47.080Z,19.40
2018-08-13T00:13:15.511Z,19.30
2018-08-13T03:01:32.419Z,18.60
2018-08-13T03:04:00.813Z,17.70
2018-08-13T03:06:29.208Z,17.70
2018-08-13T03:08:57.628Z,17.60
2018-08-13T03:11:25.996Z,17.60
2018-08-13T03:13:54.363Z,17.60
2018-08-13T03:16:23.490Z,17.60
2018-08-13T03:18:51.804Z,17.50
2018-08-13T03:21:20.163Z,17.50
2018-08-13T03:23:48.510Z,17.50
2018-08-13T03:26:16.840Z,17.50
2018-08-13T03:28:45.367Z,17.40
2018-08-13T03:31:13.683Z,17.40
2018-08-13T03:33:41.940Z,17.40
2018-08-13T07:48:30.445Z,17.40
2018-08-13T07:50:58.841Z,24.50
2018-08-13T07:53:27.211Z,24.70
2018-08-13T07:55:55.635Z,24.90
2018-08-13T07:58:24.005Z,25.10
2018-08-13T08:00:52.418Z,25.30
2018-08-13T08:03:20.738Z,25.50
2018-08-13T08:05:49.086Z,25.70
2018-08-13T08:08:17.606Z,25.90
2018-08-13T08:10:46.010Z,26.00
2018-08-13T08:13:14.414Z,26.20
2018-08-13T08:15:42.834Z,26.20
2018-08-13T08:18:11.966Z,26.20
2018-08-13T08:20:40.506Z,26.20
2018-08-13T08:23:08.879Z,26.10
2018-08-13T08:25:37.221Z,26.10
2018-08-13T08:28:05.920Z,26.10
2018-08-13T08:30:34.271Z,26.20
2018-08-13T08:33:02.756Z,26.40
2018-08-13T08:35:31.183Z,26.50
2018-08-13T08:37:59.533Z,26.70
2018-08-13T08:40:27.896Z,26.90
2018-08-13T08:42:56.372Z,27.10
2018-08-13T08:45:27.563Z,27.30
2018-08-13T08:47:56.889Z,27.60
2018-08-13T08:50:26.900Z,27.90
2018-08-13T08:52:55.308Z,28.10
2018-08-13T08:55:24.405Z,28.30
2018-08-13T08:57:55.440Z,28.40
2018-08-13T09:00:24.483Z,28.30
2018-08-13T09:02:52.907Z,28.30
2018-08-13T09:05:21.458Z,28.30
2018-08-13T09:07:50.418Z,28.10
2018-08-13T09:10:18.807Z,27.90
2018-08-13T09:12:47.234Z,27.70
2018-08-13T09:15:16.886Z,27.70
2018-08-13T09:18:02.389Z,27.80
2018-08-13T09:20:42.251Z,27.70
2018-08-13T09:23:22.216Z,27.80
2018-08-13T09:26:03.688Z,28.00
2018-08-13T09:28:43.707Z,28.10
2018-08-13T09:31:23.054Z,28.30
2018-08-13T09:34:02.821Z,28.30
2018-08-13T09:36:31.691Z,28.40
2018-08-13T09:39:00.066Z,28.50
2018-08-13T09:41:28.507Z,28.60
2018-08-13T09:44:03.498Z,28.70
2018-08-13T09:46:31.867Z,28.60
2018-08-13T09:49:00.230Z,28.70
2018-08-13T09:51:28.685Z,28.70
2018-08-13T09:53:57.046Z,28.80
2018-08-13T09:56:25.449Z,28.90
2018-08-13T09:58:53.903Z,28.90
2018-08-13T10:01:22.236Z,28.90
2018-08-13T10:03:50.647Z,29.00
2018-08-13T10:06:18.967Z,29.00
2018-08-13T10:08:47.464Z,29.00
2018-08-13T10:11:16.053Z,29.10
2018-08-13T10:13:44.448Z,29.10
2018-08-13T10:16:12.837Z,29.10
2018-08-13T10:18:41.231Z,29.30
2018-08-13T10:21:09.644Z,29.30
2018-08-13T10:23:38.061Z,29.30
2018-08-13T10:26:06.470Z,29.40
2018-08-13T10:28:35.430Z,29.40
2018-08-13T10:31:03.729Z,29.50
2018-08-13T10:33:32.182Z,29.70
2018-08-13T10:36:00.697Z,29.80
2018-08-13T10:38:29.124Z,30.00
2018-08-13T10:40:57.502Z,30.20
2018-08-13T10:43:26.568Z,30.40
2018-08-13T10:45:54.948Z,30.50
2018-08-13T10:48:23.293Z,30.60
2018-08-13T10:50:51.893Z,30.70
2018-08-13T10:53:20.609Z,30.90
2018-08-13T10:55:49.002Z,30.80
2018-08-13T10:58:17.365Z,30.70
2018-08-13T11:00:45.787Z,30.70
2018-08-13T11:03:14.248Z,30.40
2018-08-13T11:05:42.676Z,30.20
2018-08-13T11:08:11.450Z,30.20
2018-08-13T11:10:39.821Z,30.30
2018-08-13T11:13:08.498Z,30.40
2018-08-13T11:15:36.841Z,30.30
2018-08-13T11:18:05.288Z,30.20
2018-08-13T11:20:33.679Z,30.10
2018-08-13T11:23:02.015Z,30.00
2018-08-13T11:25:30.446Z,29.90
2018-08-13T11:27:58.852Z,29.90
2018-08-13T11:30:27.258Z,29.80
2018-08-13T11:32:55.917Z,29.80
2018-08-13T11:35:24.434Z,29.80
2018-08-13T11:37:53.609Z,29.70
2018-08-13T11:40:22.025Z,29.70
2018-08-13T11:42:50.392Z,29.60
2018-08-13T11:45:19.648Z,29.70
2018-08-13T11:47:48.183Z,29.70
2018-08-13T11:50:18.839Z,29.80
2018-08-13T11:52:48.246Z,30.00
2018-08-13T11:55:17.247Z,30.20
2018-08-13T11:57:46.198Z,30.40
2018-08-13T12:00:14.807Z,30.80
2018-08-13T12:02:43.380Z,31.00
2018-08-13T12:05:13.354Z,31.30
2018-08-13T12:07:42.097Z,31.40
2018-08-13T12:10:11.435Z,31.70
2018-08-13T12:12:40.697Z,31.70
2018-08-13T12:15:10.370Z,31.70
2018-08-13T12:17:38.895Z,31.60
2018-08-13T12:20:10.945Z,31.70
2018-08-13T12:22:39.404Z,31.60
2018-08-13T12:25:08.543Z,31.90
2018-08-13T12:27:37.102Z,32.20
2018-08-13T12:30:08.118Z,32.70
2018-08-13T12:32:36.608Z,32.80
2018-08-13T12:35:05.389Z,33.00
2018-08-13T12:37:33.766Z,33.20
2018-08-13T12:40:02.086Z,33.30
2018-08-13T12:42:30.374Z,33.70
2018-08-13T12:44:58.719Z,34.30
2018-08-13T12:47:28.064Z,33.80
2018-08-13T12:49:56.999Z,33.50
2018-08-13T12:52:25.392Z,33.60
2018-08-13T12:54:53.834Z,33.60
2018-08-13T12:57:22.337Z,33.70
2018-08-13T12:59:50.680Z,33.60
2018-08-13T13:02:19.085Z,34.00
2018-08-13T13:04:47.409Z,35.30
2018-08-13T13:07:15.789Z,36.90
2018-08-13T13:09:44.411Z,38.50
2018-08-13T13:12:12.744Z,39.30
2018-08-13T13:14:41.235Z,39.90
2018-08-13T13:17:09.641Z,39.40
2018-08-13T13:19:38.007Z,38.40
2018-08-13T13:22:06.422Z,37.50
2018-08-13T13:24:34.815Z,36.50
2018-08-13T13:27:03.219Z,35.70
2018-08-13T13:29:31.699Z,35.20
2018-08-13T13:32:00.025Z,34.50
2018-08-13T13:34:28.412Z,33.80
2018-08-13T13:36:56.777Z,33.40
2018-08-13T13:39:25.217Z,32.80
2018-08-13T13:41:53.623Z,32.80
2018-08-13T13:44:22.118Z,32.60
2018-08-13T13:46:50.507Z,32.60
2018-08-13T13:49:18.834Z,32.50
2018-08-13T13:51:47.223Z,32.30
2018-08-13T13:54:15.599Z,32.20
2018-08-13T13:56:43.894Z,32.10
2018-08-13T13:59:12.323Z,32.10
2018-08-13T14:01:40.724Z,32.00
2018-08-13T14:04:09.067Z,31.80
2018-08-13T14:06:37.465Z,31.80
2018-08-13T14:09:08.818Z,31.80
2018-08-13T14:11:37.241Z,31.70
2018-08-13T14:14:05.911Z,31.80
2018-08-13T14:16:34.489Z,31.70
2018-08-13T14:19:02.838Z,31.60
2018-08-13T14:21:31.367Z,31.50
2018-08-13T14:24:00.656Z,31.50
2018-08-13T14:26:28.953Z,31.30
2018-08-13T14:28:57.253Z,31.10
2018-08-13T14:31:25.708Z,31.00
2018-08-13T14:33:54.093Z,30.80
2018-08-13T14:36:22.491Z,30.70
2018-08-13T14:38:50.847Z,30.70
2018-08-13T14:41:19.632Z,30.50
2018-08-13T14:43:49.013Z,30.50
2018-08-13T14:46:17.549Z,30.50
2018-08-13T14:51:25.502Z,30.50
2018-08-13T14:53:53.968Z,30.50
2018-08-13T14:56:22.577Z,30.40
2018-08-13T14:58:51.165Z,30.40
2018-08-13T15:01:21.137Z,30.30
2018-08-13T15:03:49.939Z,30.40
2018-08-13T15:06:18.606Z,30.30
2018-08-13T15:08:48.556Z,30.30
2018-08-13T15:11:17.403Z,30.00
2018-08-13T15:13:46.330Z,29.80
2018-08-13T15:16:14.940Z,29.60
2018-08-13T15:18:43.502Z,29.40
2018-08-13T15:21:13.217Z,29.30
2018-08-13T15:23:43.537Z,29.10
2018-08-13T15:26:11.992Z,28.90
2018-08-13T15:28:40.485Z,28.80
2018-08-13T15:31:09.147Z,28.70
2018-08-13T15:33:37.560Z,28.50
2018-08-13T15:36:06.089Z,28.30
2018-08-13T15:38:34.460Z,28.10
2018-08-13T15:41:02.944Z,27.90
2018-08-13T15:43:31.705Z,27.70
2018-08-13T15:46:00.123Z,27.50
2018-08-13T15:48:28.501Z,27.40
2018-08-13T15:50:56.845Z,27.30
2018-08-13T15:53:25.242Z,27.20
2018-08-13T15:55:53.799Z,27.20
2018-08-13T15:58:22.185Z,27.10
2018-08-13T16:00:50.927Z,27.10
2018-08-13T16:03:19.361Z,26.90
2018-08-13T16:05:47.713Z,26.70
2018-08-13T16:08:16.006Z,26.50
2018-08-13T16:10:45.118Z,26.40
2018-08-13T16:13:14.022Z,25.90
2018-08-13T16:15:42.443Z,25.70
2018-08-13T16:18:10.803Z,25.60
2018-08-13T16:20:39.160Z,25.60
2018-08-13T16:23:07.639Z,25.50
2018-08-13T16:25:36.143Z,25.40
2018-08-13T16:28:04.663Z,25.30
2018-08-13T16:30:33.062Z,25.30
2018-08-13T16:33:01.675Z,25.30
2018-08-13T16:35:35.976Z,25.20
2018-08-13T16:38:04.452Z,25.20
2018-08-13T16:40:33.098Z,25.10
2018-08-13T16:43:01.635Z,25.00
2018-08-13T16:45:32.166Z,25.00
2018-08-13T16:48:01.629Z,25.10
2018-08-13T16:50:32.646Z,25.10
2018-08-13T16:53:01.433Z,25.10
2018-08-13T16:55:31.071Z,25.20
2018-08-13T16:58:00.325Z,25.20
2018-08-13T17:00:29.900Z,25.20
2018-08-13T17:02:58.774Z,25.20
2018-08-13T17:05:28.241Z,25.20
2018-08-13T17:07:56.651Z,25.20
2018-08-13T17:10:26.330Z,25.10
2018-08-13T17:12:55.438Z,25.10
2018-08-13T17:15:24.390Z,25.10
2018-08-13T17:17:54.177Z,25.20
2018-08-13T17:20:25.507Z,25.10
2018-08-13T17:22:53.990Z,25.00
2018-08-13T17:25:22.597Z,24.90
2018-08-13T17:27:51.109Z,24.80
2018-08-13T17:30:21.616Z,24.80
2018-08-13T17:32:50.961Z,24.70
2018-08-13T17:35:24.927Z,24.70
2018-08-13T17:37:53.358Z,24.70
2018-08-13T17:40:23.166Z,24.70
2018-08-13T17:43:00.624Z,24.60
2018-08-13T17:45:33.767Z,24.60
2018-08-13T17:48:02.230Z,24.60
2018-08-13T17:50:30.590Z,24.60
2018-08-13T17:53:06.105Z,24.60
2018-08-13T17:55:34.535Z,24.70
2018-08-13T17:58:03.069Z,24.70
2018-08-13T18:00:31.425Z,24.70
2018-08-13T18:02:59.714Z,24.60
2018-08-13T18:05:28.552Z,24.70
2018-08-13T18:07:57.631Z,24.70
2018-08-13T18:10:31.187Z,24.60
2018-08-13T18:13:01.863Z,24.60
2018-08-13T18:15:31.259Z,24.50
2018-08-13T18:17:59.702Z,24.40
2018-08-13T18:20:28.728Z,24.40
2018-08-13T18:22:58.578Z,24.40
2018-08-13T18:25:27.361Z,24.40
2018-08-13T18:27:55.713Z,24.30
2018-08-13T18:30:25.608Z,24.30
2018-08-13T18:32:55.479Z,24.20
2018-08-13T18:35:24.083Z,24.20
2018-08-13T18:37:52.985Z,24.20
2018-08-13T18:40:24.251Z,24.10
2018-08-13T18:42:52.775Z,24.10
2018-08-13T18:45:21.263Z,24.00
2018-08-13T18:47:50.408Z,24.00
2018-08-13T18:50:19.991Z,23.90
2018-08-13T18:52:48.403Z,23.90
2018-08-13T18:55:22.412Z,23.70
2018-08-13T18:57:51.455Z,23.60
2018-08-13T19:00:23.080Z,23.50
2018-08-13T19:02:51.542Z,23.50
2018-08-13T19:05:20.842Z,23.40
2018-08-13T19:07:49.488Z,23.40
2018-08-13T19:10:19.205Z,23.40
2018-08-13T19:12:47.782Z,23.40
2018-08-13T19:15:18.282Z,23.40
2018-08-13T19:17:46.940Z,23.40
2018-08-13T19:20:17.604Z,23.30
2018-08-13T19:22:46.143Z,23.20
2018-08-13T19:25:17.385Z,23.20
2018-08-13T19:27:47.081Z,23.20
2018-08-13T19:30:16.967Z,23.10
2018-08-13T19:32:46.732Z,23.10
2018-08-13T19:35:15.399Z,23.10
2018-08-13T19:37:44.941Z,23.00
2018-08-13T19:40:17.305Z,23.00
2018-08-13T19:42:46.598Z,23.00
2018-08-13T19:45:16.539Z,22.90
2018-08-13T19:47:47.343Z,22.90
2018-08-13T19:50:17.449Z,22.80
2018-08-13T19:52:48.359Z,22.80
2018-08-13T19:55:18.324Z,22.80
2018-08-13T19:57:47.300Z,22.80
2018-08-13T20:00:19.805Z,22.80
2018-08-13T20:02:48.708Z,22.80
2018-08-13T20:05:18.088Z,22.70
2018-08-13T20:07:46.642Z,22.60
2018-08-13T20:10:16.634Z,22.50
2018-08-13T20:12:46.354Z,22.50
2018-08-13T20:15:14.830Z,22.50
2018-08-13T20:17:43.613Z,22.40
2018-08-13T20:20:15.475Z,22.30
2018-08-13T20:22:45.659Z,22.30
2018-08-13T20:25:15.953Z,22.30
2018-08-13T20:27:45.459Z,22.20
2018-08-13T20:30:15.911Z,22.20
2018-08-13T20:32:45.489Z,22.20
2018-08-13T20:35:14.836Z,22.20
2018-08-13T20:37:43.234Z,22.10
2018-08-13T20:40:13.802Z,22.10
2018-08-13T20:42:42.563Z,22.00
2018-08-13T20:45:13.545Z,22.00
2018-08-13T20:47:42.269Z,21.90
2018-08-13T20:50:13.798Z,21.90
2018-08-13T20:52:42.601Z,21.80
2018-08-13T20:55:14.709Z,21.80
2018-08-13T20:57:44.096Z,21.70
2018-08-13T21:00:13.766Z,21.60
2018-08-13T21:02:42.863Z,21.50
2018-08-13T21:05:11.901Z,21.50
2018-08-13T21:07:40.338Z,21.50
2018-08-13T21:10:11.054Z,21.50
2018-08-13T21:12:39.569Z,21.40
2018-08-13T21:15:09.873Z,21.40
2018-08-13T21:17:38.407Z,21.40
2018-08-13T21:20:07.638Z,21.40
2018-08-13T21:22:36.481Z,21.40
2018-08-13T21:25:06.958Z,21.40
2018-08-13T21:27:35.616Z,21.30
2018-08-13T21:30:04.798Z,21.30
2018-08-13T21:32:33.247Z,21.20
2018-08-13T21:35:01.642Z,21.20
2018-08-13T21:37:30.123Z,21.20
2018-08-13T21:39:58.420Z,21.20
2018-08-13T21:42:26.784Z,21.20
2018-08-13T21:44:55.902Z,21.20
2018-08-13T21:47:24.532Z,21.20
2018-08-13T21:49:52.802Z,21.20
2018-08-13T21:52:21.182Z,21.20
2018-08-13T21:54:49.489Z,21.10
2018-08-13T21:57:17.924Z,21.10
2018-08-13T21:59:46.300Z,21.10
2018-08-13T22:02:15.591Z,21.10
2018-08-13T22:04:44.458Z,21.10
2018-08-13T22:07:13.108Z,21.10
2018-08-13T22:09:41.427Z,21.10
2018-08-13T22:12:15.280Z,21.10
2018-08-13T22:14:43.627Z,21.10
2018-08-13T22:17:11.963Z,21.10
2018-08-13T22:19:40.315Z,21.00
2018-08-13T22:22:08.659Z,21.10
2018-08-13T22:24:48.540Z,21.10
2018-08-13T22:27:16.900Z,21.00
2018-08-13T22:29:45.326Z,21.00
2018-08-13T22:32:13.729Z,21.00
2018-08-13T22:34:42.434Z,20.90
2018-08-13T22:37:11.864Z,20.90
2018-08-13T22:39:40.238Z,20.90
2018-08-13T22:42:08.671Z,20.90
2018-08-13T22:44:37.067Z,20.80
2018-08-13T22:47:05.600Z,20.80
2018-08-13T22:49:33.926Z,20.80
2018-08-13T22:52:02.306Z,20.80
2018-08-13T22:54:30.666Z,20.80
2018-08-13T22:56:59.087Z,20.80
2018-08-13T22:59:27.394Z,20.80
2018-08-13T23:01:55.748Z,20.80
2018-08-13T23:04:24.127Z,20.70
2018-08-13T23:06:52.416Z,20.70
2018-08-13T23:09:20.751Z,20.70
2018-08-13T23:11:49.124Z,20.70
2018-08-13T23:14:17.533Z,20.60
2018-08-13T23:16:45.937Z,20.70
2018-08-13T23:19:14.271Z,20.60
2018-08-13T23:21:42.704Z,20.60
2018-08-13T23:24:11.089Z,20.60
2018-08-13T23:26:39.435Z,20.50
2018-08-13T23:29:07.843Z,20.50
2018-08-13T23:31:36.154Z,20.50
2018-08-13T23:34:04.490Z,20.50
2018-08-13T23:36:32.851Z,20.50
2018-08-13T23:39:01.169Z,20.50
2018-08-13T23:41:29.628Z,20.50
2018-08-13T23:43:57.908Z,20.50
2018-08-13T23:46:26.345Z,20.50
2018-08-13T23:48:55.021Z,20.40
2018-08-13T23:51:23.419Z,20.50
2018-08-13T23:53:51.911Z,20.40
2018-08-13T23:56:20.342Z,20.40
2018-08-13T23:58:48.784Z,20.40
